LIPK/FRL METAR and TAF weather

Enter ICAO airport designator
Station Type Date Time Source
LIPK METAR 2018/12/07 16:50 UTC NOAA

LIPK 071650Z VRB01KT 5000 SCT010 06/01 Q1018


Station Type Date Time Source
LIPK Decoded METAR 2018/12/07 16:50 UTC NOAA

Forli, Italy (LIPK) 44-12N 012-04E 32M
Dec 07, 2018 - 11:50 AM EST / 2018.12.07 1650 UTC
Wind: Variable at 1 MPH (1 KT):0
Visibility: 3 mile(s):0
Sky conditions: partly cloudy
Temperature: 42 F (6 C)
Dew Point: 33 F (1 C)
Relative Humidity: 70%
Pressure (altimeter): 30.06 in. Hg (1018 hPa)
ob: LIPK 071650Z VRB01KT 5000 SCT010 06/01 Q1018
cycle: 17

Station Type Date Time Source
LIPK TAF 2015/04/01 12:08 UTC NOAA

TAF LIPK 011301Z 0112/0212 30020G32KT CAVOK
BECMG 0115/0117 30012KT
BECMG 0117/0119 VRB05KT


Example: see airport list